Guilford, Ohio
Current Conditions -  °F | °C
As of 6:56 PM on Friday 21 Nov 2014 (Local Time) from KBJJ Reporting Station
Clear Clear  
Wind Chill: 15°   Ceiling: Unl
Heat Index: 15°   Visibility: 10mi
Dew Point:   Wind: 3mph
Humidity: 68%   Direction: 190°S
Pressure: 30.45"   Gusts: NA
Location:  41.0285°N, 81.8751°W
Report Text: KBJJ 212356Z AUTO 19003KT 10SM CLR M09/M14 A3045 RMK AO2 SLP334 T10941144 11039 21100 58006 TSNO
Loading
Personal Weather Stations






























Interactive Weather Map New forecast layout! Learn more

10-Day Weather Forecast

Advertisements
Track Severe Weather on mobile